Time;durP1;ratioP1;P1;durP2;ratioP2;P2;SDS_P1;SDS_P2;PMS_P1;PMS_P2;Temp;Humidity;BMP_temperature;BMP_pressure;BME280_temperature;BME280_humidity;BME280_pressure;Samples;Min_cycle;Max_cycle;Signal;HPM_P1;HPM_P2
2021/04/17 00:02:04;;;;;;;25.70;18.70;;;;;;;11.61;75.22;100889.34;5069399;28;20032;-73
2021/04/17 00:04:30;;;;;;;21.02;14.52;;;;;;;11.54;75.08;100878.66;5069567;28;20126;-73
2021/04/17 00:06:56;;;;;;;16.75;14.73;;;;;;;11.50;74.11;100880.25;5068091;28;20402;-74
2021/04/17 00:09:24;;;;;;;18.65;15.60;;;;;;;11.46;73.99;100887.03;5070026;28;20029;-73
2021/04/17 00:11:51;;;;;;;16.73;14.50;;;;;;;10.64;73.40;100744.22;5069250;28;20425;-73
2021/04/17 00:14:26;;;;;;;16.55;13.90;;;;;;;11.09;73.68;100822.63;5067343;28;20025;-74
2021/04/17 00:16:52;;;;;;;19.73;14.00;;;;;;;11.13;74.01;100840.91;5066319;28;20020;-73
2021/04/17 00:19:18;;;;;;;19.90;14.93;;;;;;;10.98;74.50;100804.13;5069642;28;20474;-71
2021/04/17 00:21:43;;;;;;;17.02;13.63;;;;;;;11.23;75.49;100859.38;5069779;28;20032;-74
2021/04/17 00:24:09;;;;;;;21.13;15.88;;;;;;;10.92;75.84;100821.94;5068853;28;20597;-76
2021/04/17 00:26:35;;;;;;;22.70;16.48;;;;;;;11.11;76.65;100858.03;5066954;28;20036;-75
2021/04/17 00:29:02;;;;;;;18.23;15.90;;;;;;;10.95;77.07;100842.72;5069920;28;20017;-76
2021/04/17 00:31:28;;;;;;;16.42;13.45;;;;;;;10.80;77.10;100859.38;5068182;28;20390;-76
2021/04/17 00:33:54;;;;;;;16.48;13.70;;;;;;;10.52;78.10;100863.31;5070206;28;20017;-76
2021/04/17 00:36:19;;;;;;;18.25;14.27;;;;;;;10.13;79.45;100834.03;5072902;28;20027;-76
2021/04/17 00:38:45;;;;;;;20.50;16.17;;;;;;;9.88;80.35;100844.13;5072461;28;20043;-77
2021/04/17 00:41:10;;;;;;;24.63;17.55;;;;;;;9.58;81.30;100828.13;5073622;28;20082;-76
2021/04/17 00:43:36;;;;;;;41.13;24.50;;;;;;;9.60;82.53;100848.84;5073604;28;20020;-76
2021/04/17 00:46:01;;;;;;;39.80;24.33;;;;;;;9.55;83.34;100849.47;5073534;28;20035;-79
2021/04/17 00:48:27;;;;;;;33.13;20.48;;;;;;;9.57;84.07;100859.88;5073205;28;20029;-77
2021/04/17 00:50:53;;;;;;;21.63;16.33;;;;;;;9.44;84.57;100860.09;5073626;28;20104;-75
2021/04/17 00:53:19;;;;;;;53.13;29.08;;;;;;;9.34;85.45;100848.47;5073316;28;20032;-77
2021/04/17 00:55:44;;;;;;;29.55;18.77;;;;;;;9.48;85.49;100855.19;5073335;28;20103;-75
2021/04/17 00:58:10;;;;;;;41.20;23.95;;;;;;;9.36;85.11;100852.88;5073211;28;20586;-75
2021/04/17 01:00:37;;;;;;;111.30;50.50;;;;;;;9.03;85.21;100780.91;5073036;28;20036;-76
2021/04/17 01:03:14;;;;;;;53.72;30.45;;;;;;;9.49;85.14;100838.88;5073057;28;20044;-77
2021/04/17 01:05:41;;;;;;;21.38;15.93;;;;;;;9.77;84.95;100863.41;5073199;28;20016;-75
2021/04/17 01:08:18;;;;;;;89.50;40.25;;;;;;;9.80;83.95;100857.50;5073132;28;20024;-81
2021/04/17 01:10:52;;;;;;;22.27;16.35;;;;;;;9.79;83.87;100838.53;5073044;28;20031;-75
2021/04/17 01:13:19;;;;;;;33.53;21.13;;;;;;;9.76;84.00;100828.09;5065075;28;20028;-74
2021/04/17 01:15:45;;;;;;;146.50;62.60;;;;;;;9.93;83.80;100853.78;5070484;28;20480;-75
2021/04/17 01:18:11;;;;;;;23.95;17.40;;;;;;;10.06;83.88;100847.50;5071837;28;20398;-78
2021/04/17 01:20:47;;;;;;;20.13;17.73;;;;;;;10.14;83.29;100841.88;5071439;28;20016;-78
2021/04/17 01:23:40;;;;;;;19.60;16.88;;;;;;;10.25;84.09;100838.88;5072332;28;20042;-79
2021/04/17 01:26:19;;;;;;;21.50;17.73;;;;;;;10.33;83.59;100832.31;5072270;28;20028;-78
2021/04/17 01:28:57;;;;;;;30.40;18.40;;;;;;;10.22;83.48;100833.56;5070414;28;20115;-77
2021/04/17 01:31:30;;;;;;;22.85;17.60;;;;;;;9.55;84.33;100776.44;5071902;28;20059;-78
2021/04/17 01:33:57;;;;;;;22.42;18.45;;;;;;;9.62;84.98;100821.41;5071963;28;20055;-77
2021/04/17 01:36:25;;;;;;;21.35;19.08;;;;;;;9.70;85.70;100835.56;5071852;28;20124;-78
2021/04/17 01:38:55;;;;;;;22.75;18.83;;;;;;;9.81;86.25;100829.19;5068097;28;20599;-79
2021/04/17 01:41:28;;;;;;;;;;;;;;;10.01;85.05;100824.06;5070152;28;20379;-75
2021/04/17 01:43:57;;;;;;;23.58;18.67;;;;;;;9.91;84.79;100785.78;5069311;28;19913;-75
2021/04/17 01:46:26;;;;;;;31.65;20.83;;;;;;;9.98;84.14;100762.91;5071513;28;20104;-76
2021/04/17 01:48:56;;;;;;;24.02;18.38;;;;;;;10.44;83.38;100819.94;5068260;28;20035;-73
2021/04/17 01:51:23;;;;;;;21.77;17.92;;;;;;;10.18;83.43;100758.63;5070554;28;20041;-75
2021/04/17 01:53:50;;;;;;;23.20;18.73;;;;;;;10.35;83.25;100787.72;5071214;28;20033;-76
2021/04/17 01:56:19;;;;;;;23.75;18.80;;;;;;;10.51;83.37;100804.75;5053572;28;20067;-76
2021/04/17 01:58:47;;;;;;;24.73;19.02;;;;;;;10.22;83.47;100790.59;5072717;28;20482;-76
2021/04/17 02:01:13;;;;;;;22.95;18.50;;;;;;;10.12;84.52;100801.31;5072349;28;20028;-77
2021/04/17 02:03:39;;;;;;;22.40;19.00;;;;;;;10.20;84.92;100812.84;5070839;28;20459;-77
2021/04/17 02:06:05;;;;;;;21.73;18.40;;;;;;;10.35;84.30;100817.81;5072354;28;20124;-77
2021/04/17 02:08:34;;;;;;;22.70;18.48;;;;;;;10.14;83.74;100754.16;5072476;28;20485;-77
2021/04/17 02:11:00;;;;;;;;;;;;;;;10.62;83.59;100817.28;5072673;28;20029;-76
2021/04/17 02:13:25;;;;;;;20.58;16.35;;;;;;;10.70;83.04;100815.00;5072270;28;20390;-77
2021/04/17 02:15:51;;;;;;;23.52;18.17;;;;;;;10.63;82.47;100801.84;5072633;28;20444;-76
2021/04/17 02:18:26;;;;;;;22.55;18.13;;;;;;;10.62;82.25;100806.94;5072358;28;20056;-77
2021/04/17 02:21:04;;;;;;;23.88;17.67;;;;;;;10.65;81.72;100802.78;5072172;28;20089;-76
2021/04/17 02:23:30;;;;;;;26.55;18.20;;;;;;;10.62;81.75;100799.19;5072109;28;20036;-76
2021/04/17 02:25:57;;;;;;;71.20;42.83;;;;;;;10.56;82.00;100829.91;5072263;28;20446;-76
2021/04/17 02:28:25;;;;;;;221.43;88.28;;;;;;;10.24;82.96;100819.03;5070603;28;20033;-76
2021/04/17 02:30:51;;;;;;;134.80;56.17;;;;;;;9.83;83.68;100796.63;5071981;28;20040;-76
2021/04/17 02:33:16;;;;;;;57.05;29.95;;;;;;;9.65;84.63;100770.88;5071472;28;20020;-76
2021/04/17 02:35:42;;;;;;;168.20;59.50;;;;;;;9.83;85.07;100835.31;5071037;28;20036;-76
2021/04/17 02:38:07;;;;;;;100.72;44.92;;;;;;;9.65;85.34;100801.81;5071107;28;20463;-76
2021/04/17 02:40:33;;;;;;;150.15;59.90;;;;;;;9.84;85.59;100825.88;5071410;28;20024;-76
2021/04/17 02:42:58;;;;;;;205.43;80.85;;;;;;;9.92;84.80;100826.22;5071389;28;20082;-76
2021/04/17 02:45:24;;;;;;;37.72;26.75;;;;;;;9.96;84.72;100847.06;5072101;28;20021;-77
2021/04/17 02:47:49;;;;;;;32.40;24.70;;;;;;;10.10;85.10;100858.00;5071724;28;20509;-77
2021/04/17 02:50:15;;;;;;;36.33;24.95;;;;;;;10.02;84.14;100843.91;5071648;28;20478;-77
2021/04/17 02:52:40;;;;;;;35.90;25.20;;;;;;;9.99;85.47;100839.47;5070657;28;20020;-77
2021/04/17 02:55:09;;;;;;;32.80;22.85;;;;;;;9.99;84.90;100810.22;5071559;28;20035;-77
2021/04/17 02:57:34;;;;;;;39.95;27.13;;;;;;;9.66;84.25;100775.22;5071455;28;20031;-78
2021/04/17 03:00:00;;;;;;;47.28;30.73;;;;;;;10.01;84.62;100829.22;5069966;28;20115;-78
2021/04/17 03:02:25;;;;;;;34.20;24.92;;;;;;;9.80;85.24;100799.06;5070061;28;20447;-78
2021/04/17 03:04:51;;;;;;;31.67;24.88;;;;;;;9.65;86.04;100791.50;5070073;28;20056;-78
2021/04/17 03:07:16;;;;;;;35.97;30.08;;;;;;;9.85;86.63;100832.78;5049078;28;20056;-78
2021/04/17 03:09:43;;;;;;;34.83;27.40;;;;;;;9.65;88.01;100816.41;5047765;28;20037;-78
2021/04/17 03:12:10;;;;;;;30.75;24.42;;;;;;;9.83;88.43;100829.25;5048688;28;20041;-77
2021/04/17 03:14:37;;;;;;;29.30;25.38;;;;;;;9.31;87.96;100716.91;5048784;28;20060;-78
2021/04/17 03:17:03;;;;;;;31.58;24.27;;;;;;;9.97;87.79;100816.97;5048765;28;20056;-78
2021/04/17 03:19:29;;;;;;;34.60;24.80;;;;;;;10.05;87.66;100815.63;5048608;28;20498;-78
2021/04/17 03:21:54;;;;;;;33.55;25.33;;;;;;;10.18;87.42;100822.22;5048456;28;20516;-79
2021/04/17 03:24:20;;;;;;;30.63;24.20;;;;;;;9.81;86.92;100754.41;5048661;28;20047;-78
2021/04/17 03:26:45;;;;;;;26.50;22.13;;;;;;;10.09;86.44;100806.34;5048725;28;20051;-78
2021/04/17 03:29:10;;;;;;;24.10;19.92;;;;;;;9.85;85.90;100817.31;5031833;28;20556;-78
2021/04/17 03:31:36;;;;;;;21.20;17.92;;;;;;;9.84;86.22;100816.47;5048687;28;20085;-78
2021/04/17 03:34:02;;;;;;;23.02;20.10;;;;;;;9.94;86.07;100828.03;5048566;28;20047;-77
2021/04/17 03:36:27;;;;;;;23.42;19.33;;;;;;;9.79;86.71;100771.50;5049087;28;20108;-78
2021/04/17 03:38:54;;;;;;;20.10;16.48;;;;;;;10.02;84.90;100807.78;5065611;28;20039;-77
2021/04/17 03:41:22;;;;;;;20.42;15.30;;;;;;;10.02;84.56;100831.00;5088284;28;20084;-78
2021/04/17 03:43:47;;;;;;;20.38;16.55;;;;;;;9.95;84.62;100824.66;5068835;28;20402;-77
2021/04/17 03:49:35;;;;;;;21.58;17.90;;;;;;;9.72;85.66;100805.59;5102675;22;20059;-78
2021/04/17 03:52:00;;;;;;;24.65;18.42;;;;;;;9.91;85.30;100825.34;5070095;28;20473;-77
2021/04/17 03:54:26;;;;;;;21.27;18.08;;;;;;;10.00;85.69;100833.47;5071157;28;20032;-78
2021/04/17 03:56:52;;;;;;;23.10;17.98;;;;;;;10.00;85.18;100835.19;5070888;28;20048;-78
2021/04/17 03:59:17;;;;;;;20.42;17.10;;;;;;;10.04;84.76;100821.59;5069559;28;20037;-77
2021/04/17 04:01:43;;;;;;;21.42;16.83;;;;;;;9.84;84.65;100819.03;5069610;28;20046;-77
2021/04/17 04:04:08;;;;;;;20.45;17.98;;;;;;;9.61;85.06;100827.38;5070870;28;20029;-77
2021/04/17 04:06:34;;;;;;;22.23;17.80;;;;;;;9.55;86.07;100846.03;5070837;28;20028;-80
2021/04/17 04:08:59;;;;;;;20.55;18.17;;;;;;;9.57;86.58;100835.78;5071506;28;20025;-77
2021/04/17 04:14:46;;;;;;;17.92;15.35;;;;;;;9.60;86.02;100862.59;5220298;22;20069;-77
2021/04/17 04:17:12;;;;;;;16.52;13.90;;;;;;;9.63;85.30;100867.00;5015687;28;20030;-76
2021/04/17 04:19:37;;;;;;;15.95;12.60;;;;;;;9.60;84.46;100860.03;5022514;28;20030;-76
2021/04/17 04:22:03;;;;;;;14.98;13.40;;;;;;;9.62;83.63;100860.97;5020462;28;20044;-77
2021/04/17 04:24:28;;;;;;;14.23;12.57;;;;;;;9.53;84.66;100852.81;5006092;28;20050;-76
2021/04/17 04:26:54;;;;;;;17.45;13.05;;;;;;;9.62;84.29;100854.94;4995901;28;20026;-78
2021/04/17 04:29:20;;;;;;;14.13;11.80;;;;;;;9.64;84.09;100861.91;5007950;28;20038;-77
2021/04/17 04:31:45;;;;;;;16.00;11.30;;;;;;;9.74;83.34;100845.19;5148937;22;20019;-76
2021/04/17 04:34:11;;;;;;;12.73;10.75;;;;;;;9.78;83.02;100854.84;5072977;28;20037;-76
2021/04/17 04:36:36;;;;;;;11.57;10.30;;;;;;;9.67;82.35;100845.72;5072309;28;20032;-76
2021/04/17 04:39:03;;;;;;;13.73;10.38;;;;;;;9.21;83.70;100796.34;5074044;28;20060;-76
2021/04/17 04:41:29;;;;;;;11.20;9.30;;;;;;;9.56;82.87;100845.22;5073969;28;20032;-76
2021/04/17 04:43:54;;;;;;;12.07;9.65;;;;;;;9.48;83.05;100850.03;5073957;28;20036;-76
2021/04/17 04:46:20;;;;;;;11.20;9.43;;;;;;;9.21;82.61;100806.66;5074191;28;20033;-75
2021/04/17 04:48:45;;;;;;;10.88;9.52;;;;;;;9.10;83.04;100787.25;5072540;28;20025;-75
2021/04/17 04:51:10;;;;;;;10.82;9.52;;;;;;;9.42;82.97;100834.28;5073812;28;20039;-75
2021/04/17 04:53:37;;;;;;;14.20;11.25;;;;;;;9.47;83.70;100842.19;5073524;28;20037;-75
2021/04/17 04:56:04;;;;;;;17.05;11.40;;;;;;;9.40;83.42;100833.31;5073722;28;20479;-75
2021/04/17 04:58:29;;;;;;;20.38;10.63;;;;;;;9.22;83.61;100786.91;5073574;28;20032;-79
2021/04/17 05:00:55;;;;;;;27.67;15.73;;;;;;;9.45;84.31;100820.66;5073874;28;20037;-76
2021/04/17 05:03:20;;;;;;;31.23;13.38;;;;;;;9.45;83.42;100831.81;5073491;28;20032;-76
2021/04/17 05:05:46;;;;;;;25.05;11.68;;;;;;;9.51;82.72;100833.81;5073310;28;20087;-76
2021/04/17 05:08:11;;;;;;;33.40;15.55;;;;;;;9.40;84.21;100830.72;5073663;28;20075;-76
2021/04/17 05:10:37;;;;;;;30.85;14.00;;;;;;;9.47;84.92;100835.38;5073607;28;20108;-76
2021/04/17 05:13:02;;;;;;;21.63;12.55;;;;;;;9.34;84.08;100839.03;5073308;28;20493;-76
2021/04/17 05:15:28;;;;;;;39.20;15.63;;;;;;;9.32;84.81;100834.63;5073454;28;20497;-76
2021/04/17 05:17:53;;;;;;;34.65;17.23;;;;;;;9.40;84.86;100846.19;5073232;28;20056;-75
2021/04/17 05:20:19;;;;;;;16.27;8.85;;;;;;;9.07;82.62;100831.75;5072659;28;20368;-76
2021/04/17 05:22:44;;;;;;;26.88;12.40;;;;;;;9.05;84.05;100838.50;5073299;28;20401;-77
2021/04/17 05:25:10;;;;;;;19.52;12.02;;;;;;;9.22;84.64;100851.31;5073151;28;20021;-76
2021/04/17 05:27:35;;;;;;;20.20;10.93;;;;;;;8.95;83.71;100819.94;5073554;28;20115;-78
2021/04/17 05:30:01;;;;;;;23.30;12.13;;;;;;;9.06;85.11;100867.75;5073002;28;20056;-75
2021/04/17 05:32:26;;;;;;;34.13;13.88;;;;;;;9.14;83.55;100858.69;5072961;28;20056;-78
2021/04/17 05:34:53;;;;;;;29.70;12.80;;;;;;;9.19;83.36;100875.25;5073283;28;20505;-76
2021/04/17 05:37:19;;;;;;;20.92;12.60;;;;;;;9.10;84.22;100867.09;5072976;28;20032;-74
2021/04/17 05:39:44;;;;;;;43.88;21.83;;;;;;;9.10;85.78;100843.00;5073088;28;20387;-76
2021/04/17 05:42:10;;;;;;;20.02;13.23;;;;;;;8.85;86.26;100808.34;5072784;28;20606;-75
2021/04/17 05:44:35;;;;;;;24.52;14.55;;;;;;;9.06;86.64;100849.72;5072908;28;20543;-75
2021/04/17 05:47:01;;;;;;;21.30;14.93;;;;;;;8.90;87.31;100841.22;5072735;28;20032;-75
2021/04/17 05:49:26;;;;;;;14.82;12.93;;;;;;;8.74;87.80;100834.41;5072837;28;20044;-75
2021/04/17 05:51:52;;;;;;;20.98;18.90;;;;;;;8.49;88.16;100785.13;5072875;28;20470;-74
2021/04/17 05:54:17;;;;;;;15.80;11.98;;;;;;;8.89;88.00;100854.91;5072645;28;20406;-75
2021/04/17 05:56:43;;;;;;;13.68;10.70;;;;;;;8.78;87.44;100822.59;5072473;28;20085;-75
2021/04/17 05:59:09;;;;;;;18.08;12.32;;;;;;;8.88;88.18;100841.94;5072546;28;20525;-75
2021/04/17 06:01:35;;;;;;;20.17;13.57;;;;;;;8.85;88.84;100819.50;5070566;28;20024;-73
2021/04/17 06:04:01;;;;;;;20.75;13.48;;;;;;;8.96;89.32;100825.19;5070101;28;20111;-73
2021/04/17 06:06:27;;;;;;;24.38;14.63;;;;;;;8.84;88.49;100815.16;5072400;28;20039;-75
2021/04/17 06:08:52;;;;;;;19.50;12.63;;;;;;;8.85;87.29;100823.78;5072055;28;20033;-75
2021/04/17 06:11:18;;;;;;;21.98;14.68;;;;;;;8.61;87.55;100769.38;5072255;28;20453;-75
2021/04/17 06:13:43;;;;;;;26.77;12.90;;;;;;;9.06;87.46;100830.00;5072050;28;20056;-75
2021/04/17 06:16:09;;;;;;;23.08;16.88;;;;;;;8.90;87.15;100804.31;5071670;28;20025;-74
2021/04/17 06:18:36;;;;;;;30.05;14.50;;;;;;;9.03;86.76;100816.06;5071660;28;20486;-75
2021/04/17 06:21:02;;;;;;;26.88;14.45;;;;;;;9.11;87.06;100807.03;5071715;28;20513;-75
2021/04/17 06:23:28;;;;;;;36.42;15.07;;;;;;;9.23;86.30;100810.22;5053247;28;20537;-74
2021/04/17 06:25:53;;;;;;;36.38;15.43;;;;;;;9.28;86.52;100802.66;5071765;28;20031;-74
2021/04/17 06:28:19;;;;;;;60.65;24.45;;;;;;;9.37;85.97;100786.75;5071808;28;20025;-74
2021/04/17 06:30:45;;;;;;;31.80;14.85;;;;;;;9.52;86.08;100804.63;5071521;28;20421;-75
2021/04/17 06:33:11;;;;;;;40.47;16.20;;;;;;;9.27;84.58;100758.81;5069848;28;20123;-74
2021/04/17 06:35:37;;;;;;;27.58;13.52;;;;;;;9.12;85.54;100735.78;5071615;28;20033;-74
2021/04/17 06:38:03;;;;;;;32.90;16.90;;;;;;;9.43;85.81;100794.78;5069976;28;20115;-75
2021/04/17 06:40:29;;;;;;;35.80;16.42;;;;;;;9.18;85.29;100748.97;5071675;28;20492;-75
2021/04/17 06:42:58;;;;;;;29.50;14.60;;;;;;;9.52;85.34;100804.63;5071323;28;20055;-77
2021/04/17 06:45:23;;;;;;;31.90;17.10;;;;;;;9.45;86.25;100798.31;5071278;28;20070;-74
2021/04/17 06:47:49;;;;;;;34.35;15.40;;;;;;;9.21;86.48;100773.16;5071081;28;20262;-79
2021/04/17 06:50:16;;;;;;;28.88;13.90;;;;;;;9.49;86.73;100797.66;5071202;28;20395;-74
2021/04/17 06:52:44;;;;;;;25.02;13.85;;;;;;;9.30;87.69;100749.53;5067710;28;20043;-75
2021/04/17 06:55:10;;;;;;;63.35;27.30;;;;;;;9.73;86.02;100793.56;5069755;28;20402;-77
2021/04/17 06:57:37;;;;;;;23.73;13.20;;;;;;;9.82;83.97;100807.75;5068240;28;20115;-76
2021/04/17 07:00:09;;;;;;;22.17;12.27;;;;;;;9.78;83.94;100803.28;5069675;28;20048;-75
2021/04/17 07:02:34;;;;;;;20.90;9.82;;;;;;;9.73;82.04;100794.44;5066957;28;20027;-74
2021/04/17 07:05:00;;;;;;;23.10;11.88;;;;;;;9.66;82.76;100774.38;5070645;28;20020;-75
2021/04/17 07:07:30;;;;;;;16.30;9.60;;;;;;;9.71;83.28;100770.28;5071206;28;20032;-75
2021/04/17 07:09:55;;;;;;;27.58;14.90;;;;;;;9.88;84.51;100784.81;5071288;28;20060;-75
2021/04/17 07:12:21;;;;;;;24.50;18.52;;;;;;;9.94;85.46;100762.69;5071205;28;20403;-75
2021/04/17 07:14:48;;;;;;;27.70;15.32;;;;;;;10.10;84.45;100778.03;5070906;28;20047;-75
2021/04/17 07:17:16;;;;;;;24.20;13.40;;;;;;;10.33;84.96;100786.78;5070947;28;20031;-75
2021/04/17 07:19:59;;;;;;;20.33;11.27;;;;;;;10.40;81.50;100798.25;5070805;28;20017;-75
2021/04/17 07:22:32;;;;;;;23.70;11.10;;;;;;;10.35;80.91;100790.31;5067825;28;20111;-74
2021/04/17 07:25:06;;;;;;;25.30;12.05;;;;;;;10.46;82.71;100789.91;5070722;28;20040;-75
2021/04/17 07:27:36;;;;;;;21.70;10.63;;;;;;;10.52;81.77;100795.34;5069483;28;20386;-75
2021/04/17 07:30:08;;;;;;;17.67;9.95;;;;;;;10.50;80.92;100803.03;5070860;28;20024;-75
2021/04/17 07:32:36;;;;;;;20.00;9.75;;;;;;;10.53;80.10;100784.19;5086258;28;20059;-74
2021/04/17 07:35:14;;;;;;;11.05;8.07;;;;;;;10.57;77.48;100795.53;5070820;28;20081;-74
2021/04/17 07:37:42;;;;;;;19.70;11.00;;;;;;;10.56;81.08;100784.31;5069781;28;20052;-73
2021/04/17 07:40:19;;;;;;;16.52;9.98;;;;;;;10.70;81.15;100789.19;5073922;28;20024;-74
2021/04/17 07:42:57;;;;;;;19.38;9.77;;;;;;;10.75;78.94;100793.69;5070229;28;20060;-73
2021/04/17 07:45:27;;;;;;;16.33;8.18;;;;;;;10.74;77.09;100788.47;5072048;28;20028;-76
2021/04/17 07:47:59;;;;;;;12.52;8.13;;;;;;;10.60;76.98;100786.19;5073105;28;20040;-75
2021/04/17 07:50:32;;;;;;;13.35;9.30;;;;;;;10.66;81.81;100785.59;5031193;28;20040;-73
2021/04/17 07:52:58;;;;;;;19.88;11.07;;;;;;;10.76;80.64;100781.69;4950449;28;20103;-74
2021/04/17 07:55:30;;;;;;;30.63;12.38;;;;;;;10.84;79.64;100790.63;5032378;28;20029;-75
2021/04/17 07:57:57;;;;;;;35.55;13.48;;;;;;;10.93;79.32;100782.34;5032719;28;20108;-76
2021/04/17 08:00:24;;;;;;;37.72;16.50;;;;;;;10.93;77.31;100787.53;5032143;28;20033;-75
2021/04/17 08:02:52;;;;;;;31.70;13.88;;;;;;;10.96;78.71;100779.91;5032320;28;20045;-75
2021/04/17 08:05:19;;;;;;;29.52;11.40;;;;;;;11.02;78.87;100774.13;5031108;28;20076;-75
2021/04/17 08:07:46;;;;;;;17.25;8.73;;;;;;;11.14;76.86;100777.16;5032131;28;20033;-75
2021/04/17 08:10:13;;;;;;;24.08;9.60;;;;;;;11.05;77.22;100749.25;5032401;28;20046;-76
2021/04/17 08:12:40;;;;;;;22.65;9.82;;;;;;;11.26;78.33;100764.72;5032070;28;20471;-76
2021/04/17 08:15:12;;;;;;;33.38;10.82;;;;;;;11.28;77.56;100750.16;5031836;28;20036;-76
2021/04/17 08:17:39;;;;;;;25.48;12.75;;;;;;;11.31;77.46;100758.06;5031999;28;20033;-75
2021/04/17 08:20:07;;;;;;;17.95;8.52;;;;;;;11.23;76.76;100754.28;4982555;28;20044;-75
2021/04/17 08:22:33;;;;;;;16.48;9.90;;;;;;;11.29;77.96;100746.78;5071183;28;20502;-75
2021/04/17 08:24:59;;;;;;;16.33;9.00;;;;;;;10.98;77.20;100700.78;5074105;28;20056;-76
2021/04/17 08:27:29;;;;;;;21.58;12.10;;;;;;;11.36;76.26;100757.34;5074170;28;20463;-75
2021/04/17 08:29:56;;;;;;;25.48;9.07;;;;;;;11.34;74.08;100749.53;5073935;28;20028;-75
2021/04/17 08:32:24;;;;;;;13.25;6.88;;;;;;;11.23;70.91;100732.75;5073609;28;20051;-73
2021/04/17 08:35:04;;;;;;;18.40;8.70;;;;;;;11.31;71.95;100746.81;5061508;28;20044;-75
2021/04/17 08:37:31;;;;;;;27.98;10.98;;;;;;;11.26;73.80;100740.59;5063287;28;20537;-75
2021/04/17 08:39:57;;;;;;;24.70;12.98;;;;;;;11.32;74.84;100722.75;5073974;28;20099;-74
2021/04/17 08:42:48;;;;;;;14.02;8.20;;;;;;;11.50;73.38;100732.88;5073508;28;20029;-76
2021/04/17 08:45:17;;;;;;;19.20;8.93;;;;;;;11.45;73.91;100712.03;5073142;28;20036;-75
2021/04/17 08:47:49;;;;;;;27.95;8.73;;;;;;;11.59;72.60;100724.59;5073891;28;20782;-76
2021/04/17 08:50:30;;;;;;;18.67;7.53;;;;;;;11.76;73.44;100720.03;5073860;28;20035;-76
2021/04/17 08:53:17;;;;;;;13.10;6.57;;;;;;;11.79;72.55;100713.28;5073714;28;20449;-76
2021/04/17 08:55:50;;;;;;;17.25;6.85;;;;;;;11.86;71.74;100724.69;5072896;28;20086;-76
2021/04/17 08:58:21;;;;;;;9.27;6.32;;;;;;;11.95;73.48;100714.69;5066756;28;20135;-76
2021/04/17 09:00:53;;;;;;;17.60;6.82;;;;;;;11.97;72.14;100714.78;5056145;28;20032;-76
2021/04/17 09:03:40;;;;;;;13.13;7.20;;;;;;;12.14;71.63;100705.03;5073577;28;20024;-79
2021/04/17 09:06:08;;;;;;;15.23;7.70;;;;;;;12.12;69.74;100704.97;5071242;28;20073;-77
2021/04/17 09:08:38;;;;;;;9.75;5.68;;;;;;;11.84;69.66;100659.13;5071798;28;20162;-77
2021/04/17 09:11:33;;;;;;;17.90;6.72;;;;;;;12.13;70.71;100703.25;5071771;28;20474;-79
2021/04/17 09:13:59;;;;;;;11.32;5.20;;;;;;;12.11;69.44;100698.03;5070589;28;20536;-78
2021/04/17 09:16:39;;;;;;;7.50;5.20;;;;;;;11.82;69.53;100630.63;5072571;28;20024;-78
2021/04/17 09:19:05;;;;;;;6.80;4.97;;;;;;;12.04;69.55;100658.97;5071903;28;20077;-78
2021/04/17 09:21:33;;;;;;;13.75;5.28;;;;;;;12.21;68.53;100669.88;5088406;28;20016;-78
2021/04/17 09:23:59;;;;;;;16.00;6.45;;;;;;;12.33;69.19;100675.44;5070261;28;20024;-78
2021/04/17 09:26:31;;;;;;;8.73;4.95;;;;;;;12.52;66.60;100676.91;5063630;28;20044;-78
2021/04/17 09:29:01;;;;;;;22.67;7.65;;;;;;;12.57;68.41;100670.22;5063029;28;20036;-72
2021/04/17 09:31:27;;;;;;;;;;;;;;;12.56;66.28;100664.94;5066147;28;20024;-81
2021/04/17 09:34:03;;;;;;;7.70;4.75;;;;;;;12.49;67.00;100663.03;5071003;28;19916;-77
2021/04/17 09:36:30;;;;;;;7.53;5.18;;;;;;;12.44;67.14;100645.59;5070092;28;20025;-77
2021/04/17 09:38:56;;;;;;;8.07;5.10;;;;;;;12.70;66.65;100648.16;5070738;28;20028;-80
2021/04/17 09:41:22;;;;;;;15.50;7.40;;;;;;;12.90;66.48;100653.06;5064235;28;20407;-85
2021/04/17 09:43:55;;;;;;;18.73;7.72;;;;;;;12.78;66.78;100645.78;5071686;28;20040;-83
2021/04/17 09:46:22;;;;;;;21.85;7.93;;;;;;;12.76;67.73;100647.44;5070140;28;20404;-77
2021/04/17 09:48:49;;;;;;;40.30;11.23;;;;;;;12.81;66.52;100645.00;5069547;28;20036;-78
2021/04/17 09:51:23;;;;;;;16.35;7.07;;;;;;;12.75;67.44;100631.03;5069487;28;20106;-76
2021/04/17 09:53:50;;;;;;;14.05;5.93;;;;;;;12.74;67.92;100639.63;5058147;28;20112;-78
2021/04/17 09:56:27;;;;;;;32.00;8.55;;;;;;;12.61;66.57;100617.66;5062480;28;20029;-77
2021/04/17 09:58:53;;;;;;;16.98;7.38;;;;;;;12.67;68.69;100636.81;5062661;28;20027;-76
2021/04/17 10:01:19;;;;;;;9.95;6.47;;;;;;;12.66;67.90;100635.03;5060402;28;20403;-75
2021/04/17 10:03:51;;;;;;;10.45;4.85;;;;;;;12.54;67.65;100614.84;5062184;28;20025;-77
2021/04/17 10:06:37;;;;;;;41.47;15.85;;;;;;;12.41;65.71;100617.03;5062483;28;20020;-79
2021/04/17 10:09:09;;;;;;;43.60;15.13;;;;;;;12.44;67.76;100624.03;5064781;28;20032;-78
2021/04/17 10:11:36;;;;;;;35.85;12.35;;;;;;;12.43;66.74;100622.25;5071732;28;20024;-77
2021/04/17 10:14:03;;;;;;;14.25;5.78;;;;;;;12.58;65.55;100614.09;5070752;28;20024;-82
2021/04/17 10:16:31;;;;;;;30.52;10.93;;;;;;;12.60;66.26;100615.03;5070397;28;20047;-79
2021/04/17 10:18:58;;;;;;;24.33;9.98;;;;;;;12.83;68.13;100607.94;5070584;28;20027;-77
2021/04/17 10:21:26;;;;;;;24.17;10.07;;;;;;;12.97;68.57;100617.84;5068827;28;20025;-78
2021/04/17 10:24:13;;;;;;;21.60;8.98;;;;;;;12.91;64.90;100608.16;5068553;28;20067;-78
2021/04/17 10:27:10;;;;;;;17.98;7.05;;;;;;;13.02;65.76;100604.19;5067138;28;20036;-81
2021/04/17 10:29:37;;;;;;;18.75;9.35;;;;;;;13.20;66.66;100606.44;5048750;28;20112;-74
2021/04/17 10:32:14;;;;;;;33.20;10.23;;;;;;;12.83;64.78;100512.06;5065037;28;20474;-77
2021/04/17 10:34:43;;;;;;;13.88;6.00;;;;;;;13.48;65.23;100603.75;5064482;28;20028;-76
2021/04/17 10:37:16;;;;;;;16.13;6.82;;;;;;;12.89;63.87;100501.03;5066583;28;20071;-76
2021/04/17 10:39:59;;;;;;;28.88;9.20;;;;;;;13.46;63.96;100587.25;5066329;28;20405;-77
2021/04/17 10:42:25;;;;;;;21.90;8.38;;;;;;;13.73;64.93;100574.16;5067046;28;20614;-78
2021/04/17 10:44:54;;;;;;;12.57;5.55;;;;;;;14.05;63.68;100577.53;5065207;28;20036;-74
2021/04/17 10:47:19;;;;;;;19.57;9.20;;;;;;;14.14;66.48;100573.44;5062745;28;20040;-73
2021/04/17 10:49:45;;;;;;;13.40;5.57;;;;;;;14.39;61.80;100567.09;5062697;28;20094;-73
2021/04/17 10:52:30;;;;;;;29.30;8.77;;;;;;;14.54;66.03;100569.16;5061350;28;20062;-71
2021/04/17 10:54:56;;;;;;;11.35;5.10;;;;;;;14.40;62.29;100502.22;5064256;28;20033;-79
2021/04/17 10:57:23;;;;;;;7.40;4.80;;;;;;;14.76;58.99;100541.94;5050989;28;20421;-72
2021/04/17 11:00:00;;;;;;;6.53;4.25;;;;;;;14.78;60.43;100560.16;5068465;28;20728;-73
2021/04/17 11:02:34;;;;;;;10.45;5.00;;;;;;;14.42;60.48;100553.28;5068616;28;20445;-76
2021/04/17 11:05:03;;;;;;;9.93;5.88;;;;;;;14.36;59.52;100548.84;5068541;28;20063;-76
2021/04/17 11:07:39;;;;;;;9.95;4.43;;;;;;;14.34;60.64;100559.22;5065329;28;20032;-76
2021/04/17 11:10:07;;;;;;;8.07;4.57;;;;;;;14.33;60.36;100572.13;5067391;28;20379;-75
2021/04/17 11:12:35;;;;;;;15.15;5.50;;;;;;;14.44;60.52;100575.00;5065309;28;20406;-78
2021/04/17 11:15:20;;;;;;;21.13;7.45;;;;;;;14.53;61.01;100562.22;5068733;28;20490;-76
2021/04/17 11:18:15;;;;;;;20.00;6.75;;;;;;;14.61;60.37;100560.66;5077796;28;20150;-77
2021/04/17 11:20:55;;;;;;;7.82;3.90;;;;;;;14.35;59.54;100567.88;5061983;28;20040;-74
2021/04/17 11:23:53;;;;;;;9.75;4.40;;;;;;;14.13;61.36;100562.19;5062469;28;20036;-75
2021/04/17 11:26:19;;;;;;;6.82;4.15;;;;;;;13.87;59.48;100551.16;5025191;28;20145;-76
2021/04/17 11:28:51;;;;;;;8.18;4.38;;;;;;;13.80;60.92;100557.03;5022861;28;20041;-75
2021/04/17 11:31:20;;;;;;;10.23;4.90;;;;;;;13.87;61.62;100549.44;5024314;28;20038;-76